Time;durP1;ratioP1;P1;durP2;ratioP2;P2;SDS_P1;SDS_P2;PMS_P1;PMS_P2;Temp;Humidity;BMP_temperature;BMP_pressure;BME280_temperature;BME280_humidity;BME280_pressure;Samples;Min_cycle;Max_cycle;Signal;HPM_P1;HPM_P2
2023/09/14 00:01:42;;;;;;;6.82;2.83;;;13.80;99.90;;;;;;5022712;28;20032;-72
2023/09/14 00:04:07;;;;;;;5.72;2.67;;;13.70;99.90;;;;;;5023232;28;20355;-71
2023/09/14 00:06:33;;;;;;;6.07;3.03;;;13.70;99.90;;;;;;5022474;28;20029;-72
2023/09/14 00:08:59;;;;;;;4.85;3.10;;;13.60;99.90;;;;;;5021310;28;20171;-73
2023/09/14 00:11:24;;;;;;;6.70;2.78;;;13.60;99.90;;;;;;5020374;28;20052;-72
2023/09/14 00:13:50;;;;;;;7.18;3.08;;;13.60;99.90;;;;;;5020892;28;20076;-72
2023/09/14 00:16:16;;;;;;;6.00;2.92;;;13.60;99.90;;;;;;5021581;28;20033;-72
2023/09/14 00:18:41;;;;;;;3.70;2.40;;;13.60;99.90;;;;;;5022898;28;20049;-72
2023/09/14 00:21:07;;;;;;;5.13;2.70;;;13.60;99.90;;;;;;5022165;28;20565;-72
2023/09/14 00:23:32;;;;;;;5.15;2.60;;;13.60;99.90;;;;;;5023089;28;20065;-72
2023/09/14 00:25:58;;;;;;;8.18;2.72;;;13.60;99.90;;;;;;5021282;28;20116;-72
2023/09/14 00:28:23;;;;;;;4.07;2.20;;;13.60;99.90;;;;;;5019858;28;20044;-72
2023/09/14 00:30:55;;;;;;;4.47;2.47;;;13.70;99.90;;;;;;5021847;28;20133;-72
2023/09/14 00:33:22;;;;;;;8.02;3.20;;;13.70;99.90;;;;;;5022819;28;20049;-72
2023/09/14 00:35:47;;;;;;;5.45;2.50;;;13.70;99.90;;;;;;5021175;28;20021;-72
2023/09/14 00:38:13;;;;;;;7.30;3.08;;;13.70;99.90;;;;;;5022823;28;20037;-72
2023/09/14 00:40:39;;;;;;;5.07;3.20;;;13.70;99.90;;;;;;5021719;28;20030;-72
2023/09/14 00:43:04;;;;;;;6.50;2.90;;;13.80;99.90;;;;;;5022559;28;20033;-72
2023/09/14 00:45:32;;;;;;;7.05;3.03;;;13.80;99.90;;;;;;5020277;28;20029;-72
2023/09/14 00:47:59;;;;;;;7.70;3.45;;;13.90;99.90;;;;;;5022078;28;20026;-72
2023/09/14 00:50:26;;;;;;;5.80;2.72;;;13.90;99.90;;;;;;5021277;28;20036;-71
2023/09/14 00:53:00;;;;;;;7.25;2.83;;;13.90;99.90;;;;;;5022943;28;20264;-72
2023/09/14 00:55:27;;;;;;;8.30;3.20;;;14.00;99.90;;;;;;5014516;28;20029;-71
2023/09/14 00:57:53;;;;;;;6.25;3.00;;;14.00;99.90;;;;;;5022939;28;20083;-71
2023/09/14 01:00:20;;;;;;;7.00;2.92;;;14.00;99.90;;;;;;5020608;28;20049;-72
2023/09/14 01:02:46;;;;;;;7.25;3.30;;;14.10;99.90;;;;;;5022225;28;20017;-72
2023/09/14 01:05:15;;;;;;;6.57;3.00;;;14.10;99.90;;;;;;5019451;28;20041;-72
2023/09/14 01:07:41;;;;;;;7.95;3.22;;;14.10;99.90;;;;;;5020737;28;20037;-72
2023/09/14 01:10:09;;;;;;;7.20;3.15;;;14.10;99.90;;;;;;5022624;28;20475;-72
2023/09/14 01:12:35;;;;;;;6.63;3.10;;;14.10;99.90;;;;;;5022282;28;20038;-71
2023/09/14 01:15:15;;;;;;;5.63;2.83;;;14.10;99.90;;;;;;5021140;28;20372;-72
2023/09/14 01:17:50;;;;;;;6.68;2.55;;;14.10;99.90;;;;;;5019644;28;20029;-72
2023/09/14 01:20:53;;;;;;;6.32;2.45;;;14.10;99.90;;;;;;5021644;28;20026;-72
2023/09/14 01:23:31;;;;;;;5.65;2.75;;;14.10;99.90;;;;;;5020946;28;20115;-72
2023/09/14 01:25:58;;;;;;;5.05;2.55;;;14.00;99.90;;;;;;5020794;28;20025;-72
2023/09/14 01:28:24;;;;;;;5.13;2.42;;;14.00;99.90;;;;;;5020725;28;20029;-72
2023/09/14 01:30:49;;;;;;;6.15;2.88;;;14.00;99.90;;;;;;5019194;28;20029;-72
2023/09/14 01:33:17;;;;;;;6.35;2.72;;;13.90;99.90;;;;;;5010923;28;20092;-72
2023/09/14 01:36:04;;;;;;;7.20;2.72;;;13.90;99.90;;;;;;5018707;28;20533;-72
2023/09/14 01:38:31;;;;;;;4.82;2.47;;;13.90;99.90;;;;;;5021539;28;20033;-72
2023/09/14 01:40:58;;;;;;;4.15;2.55;;;13.80;99.90;;;;;;5020487;28;20851;-72
2023/09/14 01:43:25;;;;;;;6.18;3.00;;;13.70;99.90;;;;;;5002836;28;20033;-72
2023/09/14 01:45:51;;;;;;;4.43;2.50;;;13.60;99.90;;;;;;5013439;28;20036;-72
2023/09/14 01:48:18;;;;;;;7.72;3.20;;;13.60;99.90;;;;;;5021160;28;20465;-72
2023/09/14 01:50:44;;;;;;;7.43;2.90;;;13.50;99.90;;;;;;5012639;28;20036;-72
2023/09/14 01:53:10;;;;;;;7.88;3.00;;;13.40;99.90;;;;;;4997073;28;20038;-72
2023/09/14 01:55:38;;;;;;;6.18;2.88;;;13.40;99.90;;;;;;5012628;28;20480;-72
2023/09/14 01:58:04;;;;;;;6.45;2.90;;;13.30;99.90;;;;;;5017414;28;20121;-72
2023/09/14 02:00:29;;;;;;;6.53;3.08;;;13.20;99.90;;;;;;5015147;28;20025;-72
2023/09/14 02:02:55;;;;;;;6.55;2.83;;;13.20;99.90;;;;;;5015071;28;20022;-72
2023/09/14 02:05:21;;;;;;;5.20;2.80;;;13.10;99.90;;;;;;5016851;28;20086;-72
2023/09/14 02:07:47;;;;;;;5.13;2.60;;;13.00;99.90;;;;;;5019578;28;20060;-72
2023/09/14 02:10:13;;;;;;;7.03;2.92;;;13.00;99.90;;;;;;5018092;28;20520;-72
2023/09/14 02:12:39;;;;;;;7.03;3.30;;;13.00;99.90;;;;;;5019470;28;20048;-72
2023/09/14 02:15:08;;;;;;;6.88;2.65;;;12.90;99.90;;;;;;5017786;28;20043;-72
2023/09/14 02:17:34;;;;;;;5.00;2.78;;;12.90;99.90;;;;;;5016843;28;20121;-71
2023/09/14 02:19:59;;;;;;;6.93;2.70;;;12.80;99.90;;;;;;5015391;28;20520;-72
2023/09/14 02:22:25;;;;;;;8.00;2.53;;;12.70;99.90;;;;;;5018152;28;20105;-72
2023/09/14 02:24:51;;;;;;;7.53;2.97;;;12.70;99.90;;;;;;5019262;28;20442;-72
2023/09/14 02:27:16;;;;;;;6.88;3.25;;;12.70;99.90;;;;;;5016171;28;20394;-72
2023/09/14 02:29:42;;;;;;;8.73;3.38;;;12.70;99.90;;;;;;5019589;28;20079;-72
2023/09/14 02:32:08;;;;;;;9.18;3.15;;;12.70;99.90;;;;;;5016777;28;20029;-72
2023/09/14 02:34:34;;;;;;;6.05;3.30;;;12.60;99.90;;;;;;5015893;28;20034;-72
2023/09/14 02:36:59;;;;;;;8.57;2.97;;;12.60;99.90;;;;;;5015926;28;20033;-72
2023/09/14 02:39:25;;;;;;;8.35;3.28;;;12.60;99.90;;;;;;5016497;28;20157;-72
2023/09/14 02:41:50;;;;;;;6.38;2.95;;;12.60;99.90;;;;;;5014879;28;20103;-72
2023/09/14 02:44:16;;;;;;;6.13;3.10;;;12.50;99.90;;;;;;5015479;28;20040;-72
2023/09/14 02:46:42;;;;;;;8.27;3.13;;;12.50;99.90;;;;;;5021861;28;20032;-72
2023/09/14 02:49:07;;;;;;;7.60;3.40;;;12.50;99.90;;;;;;5022417;28;20060;-72
2023/09/14 02:51:33;;;;;;;7.70;3.25;;;12.40;99.90;;;;;;5021369;28;20060;-72
2023/09/14 02:53:58;;;;;;;6.57;3.17;;;12.40;99.90;;;;;;5022697;28;20096;-72
2023/09/14 02:56:24;;;;;;;6.82;2.88;;;12.40;99.90;;;;;;5020256;28;20107;-72
2023/09/14 02:58:52;;;;;;;6.47;3.38;;;12.40;99.90;;;;;;5004118;28;20156;-72
2023/09/14 03:01:20;;;;;;;10.05;3.83;;;12.40;99.90;;;;;;5001923;28;20034;-71
2023/09/14 03:03:46;;;;;;;7.18;3.47;;;12.40;99.90;;;;;;5021170;28;20045;-72
2023/09/14 03:06:12;;;;;;;5.40;3.40;;;12.40;99.90;;;;;;5022151;28;20053;-72
2023/09/14 03:08:37;;;;;;;7.05;3.50;;;12.40;99.90;;;;;;5023760;28;20025;-71
2023/09/14 03:11:03;;;;;;;5.13;3.15;;;12.40;99.90;;;;;;5021010;28;20026;-71
2023/09/14 03:13:28;;;;;;;9.95;3.67;;;12.30;99.90;;;;;;5008458;28;20100;-71
2023/09/14 03:15:55;;;;;;;8.35;3.47;;;12.30;99.90;;;;;;5005353;28;20036;-72
2023/09/14 03:18:21;;;;;;;8.25;3.50;;;12.30;99.90;;;;;;5022170;28;20112;-72
2023/09/14 03:20:50;;;;;;;6.50;3.17;;;12.20;99.90;;;;;;5019251;28;20112;-71
2023/09/14 03:23:15;;;;;;;6.88;3.38;;;12.20;99.90;;;;;;5021685;28;20529;-72
2023/09/14 03:25:41;;;;;;;5.60;3.15;;;12.20;99.90;;;;;;5015261;28;20030;-71
2023/09/14 03:28:06;;;;;;;7.53;3.35;;;12.20;99.90;;;;;;5003474;28;20538;-71
2023/09/14 03:30:34;;;;;;;4.82;3.10;;;12.20;99.90;;;;;;5003336;28;20107;-72
2023/09/14 03:33:00;;;;;;;5.32;2.97;;;12.10;99.90;;;;;;5015049;28;20133;-72
2023/09/14 03:35:26;;;;;;;4.72;3.03;;;12.10;99.90;;;;;;5020752;28;20537;-72
2023/09/14 03:37:51;;;;;;;8.93;3.47;;;12.10;99.90;;;;;;5023893;28;20643;-72
2023/09/14 03:40:17;;;;;;;6.30;3.05;;;12.10;99.90;;;;;;5022802;28;20119;-72
2023/09/14 03:42:42;;;;;;;6.95;2.72;;;12.10;99.90;;;;;;5019070;28;20048;-72
2023/09/14 03:45:08;;;;;;;5.68;2.78;;;12.10;99.90;;;;;;5021937;28;20174;-72
2023/09/14 03:47:34;;;;;;;5.53;2.90;;;12.10;99.90;;;;;;5023155;28;20115;-72
2023/09/14 03:49:59;;;;;;;5.60;3.15;;;12.10;99.90;;;;;;5019110;28;20466;-72
2023/09/14 03:52:25;;;;;;;5.15;2.88;;;12.20;99.90;;;;;;5021448;28;20047;-72
2023/09/14 03:54:51;;;;;;;7.03;3.15;;;12.20;99.90;;;;;;5022246;28;20082;-72
2023/09/14 03:57:16;;;;;;;5.13;3.03;;;12.20;99.90;;;;;;5014724;28;20463;-72
2023/09/14 03:59:43;;;;;;;8.75;3.25;;;12.20;99.90;;;;;;5018872;28;20379;-71
2023/09/14 04:02:10;;;;;;;6.63;2.85;;;12.20;99.90;;;;;;5022326;28;20026;-72
2023/09/14 04:04:39;;;;;;;6.10;2.80;;;12.10;99.90;;;;;;5017424;28;20406;-72
2023/09/14 04:07:04;;;;;;;6.68;2.65;;;12.10;99.90;;;;;;5005970;28;20509;-72
2023/09/14 04:09:30;;;;;;;5.25;3.00;;;12.10;99.90;;;;;;5021465;28;20029;-72
2023/09/14 04:11:56;;;;;;;5.60;2.60;;;12.10;99.90;;;;;;5022252;28;20191;-72
2023/09/14 04:14:22;;;;;;;5.05;2.60;;;12.10;99.90;;;;;;5021534;28;20096;-72
2023/09/14 04:16:48;;;;;;;5.18;2.50;;;12.10;99.90;;;;;;5020773;28;20613;-72
2023/09/14 04:19:14;;;;;;;6.50;2.78;;;12.10;99.90;;;;;;5018200;28;20584;-71
2023/09/14 04:21:43;;;;;;;4.78;2.40;;;12.10;99.90;;;;;;5020372;28;20053;-72
2023/09/14 04:24:09;;;;;;;6.45;2.25;;;12.10;99.90;;;;;;5021642;28;20045;-72
2023/09/14 04:26:35;;;;;;;5.32;2.33;;;12.10;99.90;;;;;;5007971;28;20073;-72
2023/09/14 04:29:01;;;;;;;4.88;2.10;;;12.10;99.90;;;;;;5017535;28;20040;-72
2023/09/14 04:31:27;;;;;;;4.63;2.42;;;12.10;99.90;;;;;;5019342;28;20034;-72
2023/09/14 04:33:52;;;;;;;5.60;2.33;;;12.10;99.90;;;;;;5018996;28;20047;-72
2023/09/14 04:36:18;;;;;;;5.60;3.05;;;12.10;99.90;;;;;;5019333;28;20034;-72
2023/09/14 04:38:44;;;;;;;3.85;2.58;;;12.10;99.90;;;;;;5019937;28;20819;-72
2023/09/14 04:41:10;;;;;;;3.75;2.30;;;12.10;99.90;;;;;;5005774;28;20690;-72
2023/09/14 04:43:36;;;;;;;5.43;2.20;;;12.10;99.90;;;;;;5002283;28;20830;-72
2023/09/14 04:46:04;;;;;;;5.65;2.35;;;12.00;99.90;;;;;;5001943;28;20042;-72
2023/09/14 04:48:30;;;;;;;4.75;2.40;;;12.00;99.90;;;;;;5011387;28;20033;-72
2023/09/14 04:50:59;;;;;;;4.68;2.47;;;12.00;99.90;;;;;;5020457;28;20138;-72
2023/09/14 04:53:26;;;;;;;8.38;2.40;;;12.00;99.90;;;;;;5020398;28;20071;-72
2023/09/14 04:55:52;;;;;;;7.40;2.75;;;12.00;99.90;;;;;;5020886;28;20029;-71
2023/09/14 04:58:18;;;;;;;5.38;2.88;;;11.90;99.90;;;;;;5011881;28;20042;-72
2023/09/14 05:00:47;;;;;;;4.70;3.13;;;11.90;99.90;;;;;;5019047;28;20427;-72
2023/09/14 05:03:13;;;;;;;5.72;2.60;;;11.90;99.90;;;;;;5017931;28;20033;-72
2023/09/14 05:05:38;;;;;;;5.80;2.67;;;11.90;99.90;;;;;;5016610;28;20606;-72
2023/09/14 05:08:06;;;;;;;5.47;2.70;;;11.90;99.90;;;;;;5019438;28;20202;-72
2023/09/14 05:10:31;;;;;;;4.68;2.90;;;11.80;99.90;;;;;;5019516;28;20402;-72
2023/09/14 05:12:57;;;;;;;4.53;2.70;;;11.80;99.90;;;;;;5016985;28;20143;-72
2023/09/14 05:15:23;;;;;;;6.55;2.80;;;11.70;99.90;;;;;;5018530;28;20036;-72
2023/09/14 05:17:48;;;;;;;5.57;2.80;;;11.70;99.90;;;;;;5018575;28;20040;-72
2023/09/14 05:20:14;;;;;;;5.82;3.00;;;11.70;99.90;;;;;;5016522;28;20033;-72
2023/09/14 05:22:41;;;;;;;5.88;3.05;;;11.70;99.90;;;;;;5020153;28;20528;-72
2023/09/14 05:25:07;;;;;;;4.63;3.00;;;11.70;99.90;;;;;;5020221;28;20355;-72
2023/09/14 05:27:40;;;;;;;5.20;3.22;;;11.70;99.90;;;;;;5009127;28;20516;-72
2023/09/14 05:30:10;;;;;;;5.85;3.40;;;11.70;99.90;;;;;;5019678;28;20108;-72
2023/09/14 05:32:37;;;;;;;4.65;3.10;;;11.80;99.90;;;;;;5017826;28;20033;-72
2023/09/14 05:35:04;;;;;;;6.85;3.42;;;11.80;99.90;;;;;;5018533;28;20113;-72
2023/09/14 05:37:29;;;;;;;5.78;3.42;;;11.90;99.90;;;;;;5017933;28;20033;-72
2023/09/14 05:39:55;;;;;;;5.28;3.35;;;11.90;99.90;;;;;;5015631;28;20032;-72
2023/09/14 05:42:22;;;;;;;6.47;3.42;;;12.00;99.90;;;;;;5018911;28;20062;-72
2023/09/14 05:44:48;;;;;;;6.25;2.85;;;11.90;99.90;;;;;;5020957;28;20421;-72
2023/09/14 05:47:14;;;;;;;5.18;3.17;;;12.00;99.90;;;;;;5019611;28;20055;-72
2023/09/14 05:49:40;;;;;;;6.53;3.20;;;12.00;99.90;;;;;;5015338;28;20056;-72
2023/09/14 05:52:06;;;;;;;9.77;3.33;;;12.10;99.90;;;;;;5018914;28;20068;-72
2023/09/14 05:54:31;;;;;;;10.85;4.00;;;12.10;99.90;;;;;;5020498;28;20072;-72
2023/09/14 05:56:57;;;;;;;10.93;3.53;;;12.20;99.90;;;;;;5018916;28;20589;-72
2023/09/14 05:59:23;;;;;;;10.68;3.53;;;12.30;99.90;;;;;;5018508;28;20034;-72
2023/09/14 06:01:50;;;;;;;4.80;2.90;;;12.30;99.90;;;;;;5019755;28;20029;-72
2023/09/14 06:04:17;;;;;;;6.53;2.70;;;12.40;99.90;;;;;;5015608;28;20053;-72
2023/09/14 06:06:43;;;;;;;5.78;3.05;;;12.50;99.90;;;;;;4997933;28;20034;-72
2023/09/14 06:09:08;;;;;;;11.52;3.45;;;12.50;99.90;;;;;;5014466;28;20048;-72
2023/09/14 06:11:34;;;;;;;8.82;2.95;;;12.60;99.90;;;;;;5020242;28;20041;-72
2023/09/14 06:14:00;;;;;;;6.90;2.22;;;12.70;99.90;;;;;;5016786;28;20145;-72
2023/09/14 06:16:26;;;;;;;7.65;3.10;;;12.80;99.90;;;;;;5017296;28;20587;-72
2023/09/14 06:18:52;;;;;;;12.73;3.20;;;12.80;99.90;;;;;;5014776;28;20037;-72
2023/09/14 06:21:18;;;;;;;14.75;3.63;;;13.00;99.90;;;;;;5020317;28;20171;-72
2023/09/14 06:23:43;;;;;;;13.40;3.78;;;13.10;99.90;;;;;;5021525;28;20029;-72
2023/09/14 06:26:09;;;;;;;10.93;3.40;;;13.20;99.90;;;;;;5019132;28;20029;-73
2023/09/14 06:28:34;;;;;;;11.00;3.38;;;13.30;99.90;;;;;;5015718;28;20446;-72
2023/09/14 06:31:00;;;;;;;10.15;3.55;;;13.40;99.90;;;;;;5020504;28;20029;-72
2023/09/14 06:33:25;;;;;;;14.23;4.43;;;13.60;99.90;;;;;;5019172;28;20041;-72
2023/09/14 06:35:52;;;;;;;13.52;4.43;;;13.80;99.90;;;;;;5019253;28;20034;-72
2023/09/14 06:38:17;;;;;;;8.77;3.22;;;13.90;99.90;;;;;;5020429;28;20034;-72
2023/09/14 06:40:43;;;;;;;4.65;2.90;;;14.10;99.90;;;;;;5024518;28;20034;-72
2023/09/14 06:43:08;;;;;;;16.80;10.77;;;14.20;99.90;;;;;;5023569;28;20029;-72
2023/09/14 06:45:34;;;;;;;42.88;21.92;;;14.30;99.90;;;;;;5023458;28;20056;-72
2023/09/14 06:48:00;;;;;;;10.50;5.80;;;14.50;99.90;;;;;;5002455;28;20053;-71
2023/09/14 06:50:25;;;;;;;7.03;3.03;;;14.70;99.90;;;;;;5001335;28;20672;-72
2023/09/14 06:52:51;;;;;;;5.90;3.10;;;14.80;99.90;;;;;;5018895;28;20038;-71
2023/09/14 06:55:17;;;;;;;8.02;3.33;;;14.90;99.90;;;;;;5015012;28;20116;-72
2023/09/14 06:57:42;;;;;;;5.88;3.28;;;15.00;99.90;;;;;;5013071;28;20030;-72
2023/09/14 07:00:15;;;;;;;7.00;3.88;;;15.20;99.90;;;;;;5008737;28;20083;-72
2023/09/14 07:02:41;;;;;;;10.38;6.00;;;15.30;99.90;;;;;;5014433;28;20068;-72
2023/09/14 07:05:10;;;;;;;9.05;4.68;;;15.50;99.90;;;;;;5010170;28;20087;-72
2023/09/14 07:07:36;;;;;;;5.60;3.13;;;15.70;99.90;;;;;;5019296;28;20048;-72
2023/09/14 07:10:02;;;;;;;8.85;3.63;;;15.80;99.90;;;;;;5024161;28;20485;-72
2023/09/14 07:12:28;;;;;;;6.22;3.67;;;15.80;99.90;;;;;;5022197;28;20055;-72
2023/09/14 07:14:53;;;;;;;6.88;3.45;;;15.90;99.90;;;;;;5008287;28;20038;-71
2023/09/14 07:17:19;;;;;;;6.88;3.38;;;15.90;99.90;;;;;;5007551;28;20136;-72
2023/09/14 07:19:44;;;;;;;6.43;3.10;;;16.10;99.90;;;;;;5008642;28;20030;-72
2023/09/14 07:22:10;;;;;;;6.50;3.58;;;16.30;99.90;;;;;;5012962;28;20040;-72
2023/09/14 07:24:36;;;;;;;7.32;3.53;;;16.60;99.90;;;;;;5008459;28;20108;-71
2023/09/14 07:27:01;;;;;;;8.38;3.53;;;16.80;99.90;;;;;;5010582;28;20112;-71
2023/09/14 07:29:28;;;;;;;6.07;3.05;;;16.90;99.90;;;;;;5007332;28;20505;-71
2023/09/14 07:31:55;;;;;;;6.18;3.30;;;17.00;99.90;;;;;;5005075;28;20437;-72
2023/09/14 07:34:20;;;;;;;7.85;3.80;;;17.00;99.90;;;;;;5005747;28;20041;-71
2023/09/14 07:36:46;;;;;;;8.43;3.65;;;17.00;99.90;;;;;;5005685;28;20433;-72
2023/09/14 07:39:11;;;;;;;7.05;3.47;;;17.30;99.90;;;;;;5009099;28;20029;-72
2023/09/14 07:41:37;;;;;;;4.28;2.95;;;17.50;99.90;;;;;;5010667;28;20112;-72
2023/09/14 07:44:03;;;;;;;5.05;3.58;;;17.80;99.90;;;;;;5015328;28;20029;-72
2023/09/14 07:46:28;;;;;;;8.25;3.40;;;18.60;99.90;;;;;;5021189;28;20168;-72
2023/09/14 07:48:54;;;;;;;10.00;3.90;;;19.20;99.90;;;;;;5020849;28;20128;-72
2023/09/14 07:51:19;;;;;;;8.90;3.65;;;19.50;99.90;;;;;;5015794;28;20040;-72
2023/09/14 07:53:45;;;;;;;7.93;3.50;;;20.20;99.90;;;;;;5019403;28;20520;-72
2023/09/14 07:56:11;;;;;;;7.40;3.05;;;20.50;99.90;;;;;;5017390;28;20044;-71
2023/09/14 07:58:36;;;;;;;8.23;3.15;;;22.10;99.90;;;;;;5020281;28;20037;-72
2023/09/14 08:01:02;;;;;;;5.75;2.75;;;23.70;99.90;;;;;;5020691;28;20029;-71
2023/09/14 08:03:28;;;;;;;12.20;3.05;;;25.20;99.90;;;;;;5017203;28;20689;-72
2023/09/14 08:05:53;;;;;;;4.95;2.53;;;26.40;99.60;;;;;;5013565;28;20455;-72
2023/09/14 08:08:19;;;;;;;7.13;2.50;;;27.50;97.00;;;;;;5008619;28;20037;-72
2023/09/14 08:10:53;;;;;;;7.15;2.75;;;28.40;91.90;;;;;;5015304;28;20033;-71
2023/09/14 08:13:19;;;;;;;6.47;2.58;;;29.20;89.40;;;;;;5015561;28;20048;-72
2023/09/14 08:15:45;;;;;;;6.35;2.30;;;29.90;83.90;;;;;;5021896;28;20449;-72
2023/09/14 08:18:11;;;;;;;5.53;2.50;;;30.60;77.00;;;;;;5018566;28;20040;-69
2023/09/14 08:20:44;;;;;;;6.13;2.70;;;31.10;74.60;;;;;;5014958;28;20033;-72
2023/09/14 08:23:15;;;;;;;5.65;2.17;;;31.70;75.10;;;;;;5017779;28;20147;-72
2023/09/14 08:25:43;;;;;;;5.93;2.10;;;32.30;70.20;;;;;;5017251;28;20025;-72
2023/09/14 08:28:19;;;;;;;7.35;2.40;;;32.90;70.40;;;;;;5008377;28;20033;-72
2023/09/14 08:30:46;;;;;;;6.80;2.28;;;33.80;64.90;;;;;;5001923;28;20042;-72
2023/09/14 08:33:12;;;;;;;6.70;2.20;;;34.30;63.50;;;;;;5026029;28;20611;-72
2023/09/14 08:35:38;;;;;;;5.75;2.40;;;34.60;59.30;;;;;;5016902;28;20025;-72
2023/09/14 08:38:05;;;;;;;4.80;1.98;;;34.80;58.80;;;;;;5021157;28;20559;-72
2023/09/14 08:40:31;;;;;;;7.38;2.20;;;35.10;57.40;;;;;;5022419;28;20112;-70
2023/09/14 08:42:59;;;;;;;4.88;2.00;;;35.40;57.50;;;;;;5022027;28;20116;-72
2023/09/14 08:45:32;;;;;;;5.40;1.92;;;35.60;58.10;;;;;;5020367;28;20064;-72
2023/09/14 08:47:59;;;;;;;6.75;3.13;;;35.70;56.00;;;;;;5022712;28;20116;-70
2023/09/14 08:50:28;;;;;;;7.38;2.28;;;35.80;56.50;;;;;;5020917;28;20048;-70
2023/09/14 08:52:54;;;;;;;5.90;2.30;;;36.20;53.20;;;;;;5020018;28;20064;-70
2023/09/14 08:55:22;;;;;;;6.38;2.08;;;36.60;53.00;;;;;;5014239;28;20038;-70
2023/09/14 08:57:49;;;;;;;4.32;2.00;;;36.70;51.50;;;;;;5018364;28;20095;-70
2023/09/14 09:00:15;;;;;;;5.38;1.80;;;37.00;51.10;;;;;;5008456;28;20738;-70
2023/09/14 09:02:52;;;;;;;3.92;1.70;;;36.90;51.60;;;;;;5021475;28;20083;-70
2023/09/14 09:05:19;;;;;;;7.97;2.28;;;37.30;50.30;;;;;;5007713;28;20050;-70
2023/09/14 09:07:48;;;;;;;6.72;1.85;;;37.60;48.00;;;;;;5007364;28;20109;-70
2023/09/14 09:10:21;;;;;;;3.67;1.70;;;37.70;48.70;;;;;;5015846;28;20084;-70
2023/09/14 09:12:49;;;;;;;4.88;1.70;;;37.90;48.60;;;;;;5002810;28;20368;-70
2023/09/14 09:15:15;;;;;;;5.18;1.38;;;38.10;48.40;;;;;;5001785;28;20044;-70
2023/09/14 09:17:41;;;;;;;6.70;1.88;;;38.40;47.50;;;;;;5002532;28;20463;-70
2023/09/14 09:20:14;;;;;;;4.10;1.50;;;38.90;44.90;;;;;;5016729;28;20048;-70
2023/09/14 09:22:42;;;;;;;5.63;1.52;;;38.90;45.70;;;;;;5021824;28;20021;-69
2023/09/14 09:25:09;;;;;;;3.15;1.70;;;39.40;42.90;;;;;;5019257;28;20132;-70
2023/09/14 09:27:34;;;;;;;7.03;2.00;;;39.40;43.50;;;;;;5018136;28;20557;-70
2023/09/14 09:30:01;;;;;;;3.95;1.80;;;38.00;43.50;;;;;;5021521;28;20041;-70
2023/09/14 09:32:26;;;;;;;4.43;1.67;;;35.90;44.70;;;;;;5020592;28;20104;-72
2023/09/14 09:34:52;;;;;;;4.57;1.90;;;34.30;48.70;;;;;;5020953;28;20256;-73
2023/09/14 09:37:18;;;;;;;3.70;1.30;;;34.10;52.90;;;;;;5018186;28;20026;-72
2023/09/14 09:39:44;;;;;;;4.63;1.90;;;35.00;51.70;;;;;;5018297;28;20594;-70
2023/09/14 09:42:13;;;;;;;7.97;1.60;;;36.70;46.10;;;;;;5014474;28;20029;-70
2023/09/14 09:44:39;;;;;;;4.15;1.70;;;37.80;46.30;;;;;;5016367;28;20029;-71
2023/09/14 09:47:05;;;;;;;4.00;1.20;;;39.00;45.50;;;;;;5014849;28;20083;-70
2023/09/14 09:49:31;;;;;;;3.10;1.25;;;40.00;42.90;;;;;;5016587;28;20112;-71
2023/09/14 09:51:57;;;;;;;4.85;1.50;;;40.60;40.90;;;;;;5009008;28;20363;-72
2023/09/14 09:54:24;;;;;;;5.20;1.60;;;39.00;40.60;;;;;;5015325;28;20089;-71
2023/09/14 09:56:51;;;;;;;5.18;1.42;;;37.20;45.10;;;;;;5013779;28;20089;-71
2023/09/14 09:59:17;;;;;;;6.25;1.98;;;36.00;47.00;;;;;;5018300;28;20815;-72
2023/09/14 10:01:49;;;;;;;5.63;1.73;;;34.90;46.60;;;;;;5013028;28;20091;-70
2023/09/14 10:04:17;;;;;;;4.22;1.05;;;33.20;49.60;;;;;;5014106;28;20339;-71
2023/09/14 10:06:55;;;;;;;6.45;1.50;;;31.60;51.50;;;;;;5008600;28;20051;-71
2023/09/14 10:09:21;;;;;;;4.93;1.45;;;30.60;55.40;;;;;;5016390;28;20029;-71
2023/09/14 10:11:49;;;;;;;6.32;1.70;;;31.40;53.90;;;;;;5014334;28;20479;-71
2023/09/14 10:14:18;;;;;;;3.53;1.25;;;31.60;52.40;;;;;;5007563;28;20458;-71
2023/09/14 10:16:44;;;;;;;3.80;1.50;;;31.20;51.60;;;;;;5012525;28;20034;-71
2023/09/14 10:19:11;;;;;;;3.35;1.30;;;30.90;53.60;;;;;;5002974;28;20048;-71
2023/09/14 10:21:39;;;;;;;4.60;1.30;;;32.30;55.00;;;;;;5017904;28;20152;-70
2023/09/14 10:24:06;;;;;;;4.13;1.33;;;34.60;52.10;;;;;;5018790;28;20033;-73
2023/09/14 10:26:38;;;;;;;2.40;1.20;;;36.20;44.70;;;;;;5007782;28;20087;-70
2023/09/14 10:29:08;;;;;;;2.38;1.10;;;36.00;44.50;;;;;;5016833;28;20095;-71
2023/09/14 10:31:34;;;;;;;5.50;1.43;;;36.50;46.30;;;;;;5018828;28;20017;-70
2023/09/14 10:34:01;;;;;;;4.57;1.00;;;37.80;43.00;;;;;;5022185;28;20040;-70
2023/09/14 10:36:32;;;;;;;4.05;0.93;;;39.00;43.70;;;;;;5018529;28;20044;-70
2023/09/14 10:38:59;;;;;;;3.72;1.00;;;39.60;42.20;;;;;;5012821;28;20030;-70
2023/09/14 10:41:25;;;;;;;2.15;1.10;;;40.00;43.20;;;;;;5010430;28;20038;-70
2023/09/14 10:43:51;;;;;;;3.53;0.90;;;41.20;40.70;;;;;;5007669;28;20084;-70
2023/09/14 10:46:22;;;;;;;3.13;0.90;;;41.10;39.80;;;;;;5007547;28;20112;-71
2023/09/14 10:48:48;;;;;;;3.22;1.00;;;40.10;38.70;;;;;;5007225;28;21896;-71
2023/09/14 10:51:14;;;;;;;2.72;1.08;;;38.10;40.10;;;;;;5007760;28;20033;-71
2023/09/14 10:53:41;;;;;;;2.53;1.05;;;35.50;43.40;;;;;;5010521;28;20099;-71
2023/09/14 10:56:19;;;;;;;2.65;1.30;;;33.00;46.50;;;;;;5003609;28;20078;-71
2023/09/14 10:58:50;;;;;;;3.88;1.15;;;30.80;49.80;;;;;;5007090;28;20017;-70
2023/09/14 11:01:26;;;;;;;5.10;1.30;;;29.30;52.30;;;;;;5008134;28;20033;-71
2023/09/14 11:04:13;;;;;;;2.90;1.27;;;28.00;55.60;;;;;;5007855;28;20575;-70
2023/09/14 11:06:52;;;;;;;4.20;1.27;;;27.10;59.90;;;;;;5005760;28;20021;-71
2023/09/14 11:09:23;;;;;;;3.80;1.15;;;26.60;61.80;;;;;;5011484;28;20131;-70
2023/09/14 11:11:50;;;;;;;5.20;1.20;;;26.10;63.00;;;;;;5012309;28;20427;-71
2023/09/14 11:14:17;;;;;;;3.35;1.00;;;26.30;75.10;;;;;;5007513;28;20042;-71
2023/09/14 11:16:57;;;;;;;6.75;1.20;;;28.80;63.20;;;;;;5009996;28;20033;-70
2023/09/14 11:19:29;;;;;;;2.25;0.98;;;32.00;54.30;;;;;;5006384;28;20072;-70
2023/09/14 11:21:54;;;;;;;4.13;1.10;;;34.40;52.60;;;;;;5007796;28;20550;-71
2023/09/14 11:24:32;;;;;;;2.90;1.00;;;35.30;51.80;;;;;;5007357;28;20088;-70
2023/09/14 11:26:58;;;;;;;3.20;0.90;;;35.30;49.60;;;;;;5009814;28;20033;-70
2023/09/14 11:29:26;;;;;;;2.40;0.90;;;34.70;48.90;;;;;;5007929;28;20029;-70
2023/09/14 11:32:06;;;;;;;2.47;1.10;;;34.10;49.60;;;;;;5007728;28;20068;-70
2023/09/14 11:34:34;;;;;;;1.83;0.90;;;33.00;50.70;;;;;;5009243;28;20044;-71
2023/09/14 11:37:01;;;;;;;5.38;0.90;;;31.50;51.10;;;;;;5003793;28;20030;-70
2023/09/14 11:39:28;;;;;;;4.32;1.02;;;30.20;53.60;;;;;;5006946;28;20936;-70
2023/09/14 11:42:01;;;;;;;1.63;0.70;;;29.30;56.10;;;;;;5008472;28;20403;-70
2023/09/14 11:44:31;;;;;;;5.00;1.13;;;28.60;56.40;;;;;;5008429;28;20593;-71
2023/09/14 11:46:59;;;;;;;0.95;0.63;;;28.40;57.90;;;;;;5014243;28;20088;-71
2023/09/14 11:49:31;;;;;;;3.10;0.80;;;27.80;57.50;;;;;;5016833;28;20033;-70
2023/09/14 11:51:57;;;;;;;1.10;0.68;;;27.30;60.70;;;;;;5018723;28;20105;-70
2023/09/14 11:54:32;;;;;;;1.55;0.50;;;27.90;61.40;;;;;;5015514;28;20076;-70
2023/09/14 11:57:04;;;;;;;2.58;0.70;;;27.80;60.80;;;;;;5018810;28;20651;-70
2023/09/14 11:59:32;;;;;;;0.88;0.60;;;27.40;57.40;;;;;;5015184;28;20079;-70
2023/09/14 12:02:00;;;;;;;2.40;0.60;;;26.80;57.30;;;;;;5015359;28;20057;-70
2023/09/14 12:04:29;;;;;;;2.88;0.70;;;26.20;62.20;;;;;;5015972;28;20045;-70
2023/09/14 12:06:56;;;;;;;2.60;0.77;;;25.70;65.10;;;;;;5017168;28;20047;-70
2023/09/14 12:09:39;;;;;;;2.03;0.85;;;25.10;64.00;;;;;;5019587;28;20030;-70
2023/09/14 12:12:06;;;;;;;2.22;0.55;;;25.00;69.50;;;;;;5017196;28;20047;-70
2023/09/14 12:14:36;;;;;;;2.30;0.65;;;25.60;70.20;;;;;;5020552;28;20439;-71
2023/09/14 12:17:01;;;;;;;1.77;0.80;;;26.40;69.60;;;;;;5020865;28;20104;-71
2023/09/14 12:19:27;;;;;;;1.33;0.50;;;27.20;63.40;;;;;;5014243;28;20480;-71
2023/09/14 12:21:53;;;;;;;1.63;0.60;;;27.90;64.00;;;;;;5016469;28;20021;-70
2023/09/14 12:24:18;;;;;;;2.00;0.70;;;28.10;59.00;;;;;;5018048;28;20083;-70
2023/09/14 12:26:44;;;;;;;1.80;0.70;;;28.40;59.10;;;;;;5016528;28;20033;-70
2023/09/14 12:29:10;;;;;;;2.03;0.70;;;28.70;61.90;;;;;;5015423;28;20049;-70
2023/09/14 12:31:37;;;;;;;3.13;0.80;;;28.00;58.70;;;;;;5023783;28;20120;-71
2023/09/14 12:34:03;;;;;;;0.95;0.60;;;27.40;59.70;;;;;;5023899;28;20140;-70
2023/09/14 12:36:30;;;;;;;2.28;0.70;;;27.30;61.50;;;;;;5019659;28;20072;-70
2023/09/14 12:38:55;;;;;;;1.50;0.57;;;27.40;62.70;;;;;;5021653;28;20029;-70
2023/09/14 12:41:21;;;;;;;2.03;0.63;;;27.50;61.20;;;;;;5019919;28;20396;-70
2023/09/14 12:43:47;;;;;;;1.65;0.65;;;27.50;61.90;;;;;;5014656;28;20029;-70
2023/09/14 12:46:13;;;;;;;2.22;0.60;;;27.80;62.00;;;;;;5019396;28;20034;-70